This is the latest recevied weather packets stored in our database for station/object K5MJM. If no packets are shown the sender has not sent any weather packets the latest 10 day(s).
| Time | Temp. | Humidity | Pressure | Rain* | Wind** | Luminosity | Snow |
|---|---|---|---|---|---|---|---|
| 1777058138 | 21.67° C | 70% | 1008.5 hPa | 0 mm | - | - | - |
| 1777055118 | 20° C | 71% | 1008.9 hPa | 0 mm | - | - | - |
| 1777053918 | 18.89° C | 73% | 1009 hPa | 0 mm | - | - | - |
| 1777052718 | 18.33° C | 72% | 1009.2 hPa | 0 mm | - | - | - |
| 1777041318 | 15.56° C | 89% | 1007.7 hPa | 0 mm | - | - | - |
| 1777036539 | 15.56° C | 88% | 1007.2 hPa | 0 mm | - | - | - |
| 1777025118 | 15.56° C | 78% | 1004.9 hPa | 0.25 mm | - | - | - |
| 1777019718 | 16.67° C | 75% | 1004.6 hPa | 0 mm | - | - | - |
| 1777010718 | 21.67° C | 72% | 1003.4 hPa | 0 mm | - | - | - |
| 1777010117 | 21.67° C | 71% | 1003.2 hPa | 0 mm | - | - | - |
| 1777009518 | 21.67° C | 71% | 1002.8 hPa | 0 mm | - | - | - |
| 1777007718 | 22.22° C | 71% | 1003.2 hPa | 0 mm | - | - | - |
| 1777004118 | 22.22° C | 70% | 1003.5 hPa | 0 mm | - | - | - |
| 1777001719 | 22.78° C | 70% | 1003.7 hPa | 0 mm | - | - | - |
| 1776996319 | 23.33° C | 69% | 1001.5 hPa | 0 mm | - | - | - |
| 1776995118 | 23.33° C | 68% | 1001.4 hPa | 0 mm | - | - | - |
| 1776990339 | 25.56° C | 64% | 1001.5 hPa | 0 mm | - | - | - |
| 1776987318 | 27.22° C | 60% | 1002 hPa | 0 mm | - | - | - |
| 1776985518 | 28.33° C | 58% | 1002.2 hPa | 0 mm | - | - | - |
| 1776984339 | 28.33° C | 56% | 1002.4 hPa | 0 mm | - | - | - |
| 1776978919 | 28.89° C | 54% | 1003.1 hPa | 0 mm | - | - | - |
| 1776973518 | 28.33° C | 56% | 1004.2 hPa | 0 mm | - | - | - |
| 1776972918 | 27.78° C | 57% | 1004.4 hPa | 0 mm | - | - | - |
| 1776971718 | 28.33° C | 57% | 1004.6 hPa | 0 mm | - | - | - |
| 1776964518 | 26.11° C | 62% | 1006.2 hPa | 0 mm | - | - | - |
* Rain latest hour (hover to see other rain measurements)
** Current wind speed in m/s (hover to see current wind gust speed)